cn5135.com alexa rank chart, cn5135.com alexa rank daily changes

cn5135.com alexa rank chart, cn5135.com alexa rank daily changes

cn5135.com
Actual rank:
164 718

RANK HISTORY

Date Rank Diff
2017/12/15 164 718 -299
2017/12/14 165 017 -5 847
2017/12/13 170 864 -199
2017/12/12 171 063 +9 168
2017/12/11 161 895 +5 755
2017/12/10 156 140 +4 089
2017/12/09 152 051 +1 114
2017/12/08 150 937 +4 542
2017/12/07 146 395 -271
2017/12/06 146 666 +1 075
2017/12/05 145 591 +65
2017/12/04 145 526 -4 969
2017/12/03 150 495 +2 370
2017/12/02 148 125 -1 533
2017/12/01 149 658 -1 675
2017/11/30 151 333 -3 641
2017/11/29 154 974 +844
2017/11/28 154 130 -82
2017/11/27 154 212 -5 616
2017/11/26 159 828 +4 943
2017/11/25 154 885 -18 252
2017/11/24 173 137 -16 047
2017/11/23 189 184 +1 750
2017/11/22 187 434 +5 870
2017/11/21 181 564 +942
2017/11/20 180 622 +8 846
2017/11/19 171 776 -1 704
2017/11/18 173 480 -6 935
2017/11/17 180 415 -11 292
2017/11/16 191 707 -5 690
2017/11/15 197 397 +435
2017/11/14 196 962 -3 283
2017/11/13 200 245 -639
2017/11/12 200 884 -7 703
2017/11/11 208 587 -3 118
2017/11/10 211 705 +7 172
2017/11/09 204 533 +7 854
2017/11/08 196 679 -3 205
2017/11/07 199 884 +9 606
2017/11/06 190 278 -8 891
2017/11/05 199 169 +175
2017/11/04 198 994 +9 180
2017/11/03 189 814 -2 168
2017/11/02 191 982 +1 964
2017/11/01 190 018 +1 345
2017/10/31 188 673 +7 894
2017/10/30 180 779 +724
2017/10/29 180 055 -7 450
2017/10/28 187 505 +10 897
2017/10/27 176 608 +16 858
2017/10/26 159 750 -9 952
2017/10/25 169 702 +1 157
2017/10/24 168 545 -8 325
2017/10/23 176 870 -1 577
2017/10/22 178 447 -5 865
2017/10/21 184 312 +10 445
2017/10/20 173 867 -18 260
2017/10/19 192 127 -7 298
2017/10/18 199 425 +2 164
2017/10/17 197 261 +5 793
2017/10/16 191 468

WIDGET FOR YOUR SITE

DOMAINS WITH THE NEAREST RANK

Domain Rank
creditguard.co.il 164 713
city.yokosuka.kanagawa.jp 164 714
vicampo.de 164 715
access-templates.com 164 716
sanaad.ir 164 717
cn5135.com 164 718
pnwboces.org 164 719
canneslions.com 164 720
njdc.com 164 721
processingraw.com 164 722
dgart.club 164 723

DOMAINS WITH THE NEAREST RANK BY TLD .com

Domain Rank
apnacomplex.com 164 706
yieldlove.com 164 708
bloggingbasics101.com 164 709
pmirnc.com 164 711
access-templates.com 164 716
cn5135.com 164 718
canneslions.com 164 720
njdc.com 164 721
processingraw.com 164 722
tradew.com 164 726
gmz88.com 164 727